createdAt,value
2022-10-25T00:02:16.293Z,99938.53
2022-10-25T00:06:19.597Z,99942.94
2022-10-25T00:10:24.947Z,99933.25
2022-10-25T00:14:28.930Z,99927.94
2022-10-25T00:18:33.186Z,99932.31
2022-10-25T00:22:36.208Z,99932.31
2022-10-25T00:26:41.251Z,99959.69
2022-10-25T00:30:44.441Z,99957.03
2022-10-25T00:34:48.959Z,99958.81
2022-10-25T00:38:52.286Z,99958.84
2022-10-25T00:42:55.177Z,99959.75
2022-10-25T00:46:58.134Z,99970.38
2022-10-25T00:51:03.785Z,99961.56
2022-10-25T00:55:09.492Z,99966.78
2022-10-25T00:59:17.890Z,99960.63
2022-10-25T01:03:24.018Z,99958.88
2022-10-25T01:07:28.527Z,99948.31
2022-10-25T01:11:31.483Z,99943.91
2022-10-25T01:15:42.349Z,99944.81
2022-10-25T01:20:23.200Z,99944.84
2022-10-25T01:24:59.143Z,99927.19
2022-10-25T01:29:29.928Z,99926.34
2022-10-25T01:33:37.915Z,99936.94
2022-10-25T01:37:48.919Z,99937.78
2022-10-25T01:42:00.586Z,99928.97
2022-10-25T01:46:13.366Z,99940.44
2022-10-25T01:50:23.069Z,99929.84
2022-10-25T01:54:27.204Z,99931.63
2022-10-25T01:58:39.575Z,99934.31
2022-10-25T02:02:59.131Z,99926.41
2022-10-25T02:07:08.827Z,99934.38
2022-10-25T02:11:22.693Z,99928.16
2022-10-25T02:15:33.278Z,99933.44
2022-10-25T02:19:41.689Z,99939.59
2022-10-25T02:23:48.581Z,99938.72
2022-10-25T02:27:53.772Z,99948.41
2022-10-25T02:31:56.958Z,99954.59
2022-10-25T02:36:06.995Z,99937.81
2022-10-25T02:40:13.014Z,99937.81
2022-10-25T02:44:16.197Z,99936.06
2022-10-25T02:48:19.075Z,99936.06
2022-10-25T02:52:22.003Z,99938.69
2022-10-25T02:56:26.615Z,99932.50
2022-10-25T03:00:29.920Z,99941.34
2022-10-25T03:04:32.899Z,99938.69
2022-10-25T03:08:36.404Z,99936.94
2022-10-25T03:12:40.704Z,99936.94
2022-10-25T03:16:43.687Z,99933.47
2022-10-25T03:20:46.675Z,99929.09
2022-10-25T03:24:49.568Z,99929.13
2022-10-25T03:28:53.859Z,99927.38
2022-10-25T03:32:57.562Z,99934.47
2022-10-25T03:37:00.483Z,99938.00
2022-10-25T03:41:03.574Z,99928.38
2022-10-25T03:45:08.811Z,99925.72
2022-10-25T03:49:11.745Z,99931.88
2022-10-25T03:53:15.944Z,99938.13
2022-10-25T03:57:19.073Z,99934.59
2022-10-25T04:01:23.534Z,99933.69
2022-10-25T04:05:26.613Z,99933.69
2022-10-25T04:09:29.575Z,99937.31
2022-10-25T04:13:32.465Z,99934.72
2022-10-25T04:17:36.785Z,99941.81
2022-10-25T04:21:39.669Z,99948.91
2022-10-25T04:25:42.573Z,99953.34
2022-10-25T04:29:45.528Z,99953.38
2022-10-25T04:33:51.453Z,99954.28
2022-10-25T04:37:58.139Z,99963.09
2022-10-25T04:42:01.068Z,99971.03
2022-10-25T04:46:04.273Z,99961.31
2022-10-25T04:50:09.305Z,99978.09
2022-10-25T04:54:12.961Z,99961.34
2022-10-25T04:58:15.854Z,99967.53
2022-10-25T05:02:18.740Z,99958.69
2022-10-25T05:06:25.439Z,99969.28
2022-10-25T05:10:28.440Z,99971.06
2022-10-25T05:14:31.324Z,99979.00
2022-10-25T05:18:35.680Z,99970.19
2022-10-25T05:22:40.041Z,99964.03
2022-10-25T05:26:43.084Z,99967.56
2022-10-25T05:30:46.291Z,99966.69
2022-10-25T05:34:49.350Z,99954.34
2022-10-25T05:38:54.444Z,99956.97
2022-10-25T05:42:57.616Z,99958.75
2022-10-25T05:47:00.611Z,99978.13
2022-10-25T05:51:32.353Z,99981.66
2022-10-25T05:55:38.435Z,99987.84
2022-10-25T05:59:41.404Z,99994.06
2022-10-25T06:03:44.969Z,99997.56
2022-10-25T06:07:48.402Z,100008.16
2022-10-25T06:11:52.971Z,100010.81
2022-10-25T06:15:56.129Z,100034.59
2022-10-25T06:19:59.168Z,100039.91
2022-10-25T06:24:02.403Z,100040.78
2022-10-25T06:28:09.301Z,100054.00
2022-10-25T06:32:12.414Z,100060.19
2022-10-25T06:36:17.356Z,100061.06
2022-10-25T06:44:29.793Z,100071.69
2022-10-25T06:48:33.090Z,100081.41
2022-10-25T06:52:36.086Z,100081.41
2022-10-25T06:56:39.103Z,100084.97
2022-10-25T07:00:46.017Z,100091.13
2022-10-25T07:04:52.193Z,100099.06
2022-10-25T07:08:56.875Z,100100.78
2022-10-25T07:13:00.084Z,100101.66
2022-10-25T07:17:04.547Z,100106.94
2022-10-25T07:21:09.561Z,100098.97
2022-10-25T07:25:12.617Z,100096.31
2022-10-25T07:29:15.722Z,100097.16
2022-10-25T07:33:21.373Z,100096.19
2022-10-25T07:37:24.569Z,100101.47
2022-10-25T07:41:27.774Z,100103.19
2022-10-25T07:45:31.331Z,100110.13
2022-10-25T07:49:36.708Z,100110.97
2022-10-25T07:53:39.910Z,100108.28
2022-10-25T07:57:43.279Z,100109.97
2022-10-25T08:01:46.342Z,100108.13
2022-10-25T08:05:50.823Z,100103.59
2022-10-25T08:09:53.850Z,100107.06
2022-10-25T08:13:56.854Z,100099.88
2022-10-25T08:18:00.276Z,100101.53
2022-10-25T08:26:36.578Z,100104.00
2022-10-25T08:30:41.305Z,100108.31
2022-10-25T08:34:44.352Z,100110.84
2022-10-25T08:38:48.283Z,100109.88
2022-10-25T08:43:01.771Z,100105.31
2022-10-25T08:47:11.881Z,100108.66
2022-10-25T08:51:25.309Z,100112.06
2022-10-25T08:55:34.036Z,100111.06
2022-10-25T08:59:42.061Z,100112.72
2022-10-25T09:03:45.181Z,100124.94
2022-10-25T09:08:16.507Z,100109.66
2022-10-25T09:12:30.540Z,100112.22
2022-10-25T09:16:43.492Z,100113.84
2022-10-25T09:20:51.123Z,100116.34
2022-10-25T09:24:59.844Z,100113.50
2022-10-25T09:29:08.537Z,100114.19
2022-10-25T09:33:17.937Z,100117.56
2022-10-25T09:37:27.903Z,100117.38
2022-10-25T09:41:36.565Z,100112.84
2022-10-25T09:45:49.448Z,100109.16
2022-10-25T09:50:00.162Z,100118.78
2022-10-25T09:54:12.556Z,100130.19
2022-10-25T09:58:20.998Z,100131.88
2022-10-25T10:02:26.186Z,100130.84
2022-10-25T10:06:37.461Z,100136.91
2022-10-25T10:10:42.016Z,100141.25
2022-10-25T10:14:52.774Z,100129.63
2022-10-25T10:19:16.097Z,100123.28
2022-10-25T10:23:20.535Z,100116.00
2022-10-25T10:27:27.924Z,100119.41
2022-10-25T10:31:36.277Z,100113.09
2022-10-25T10:35:39.632Z,100118.28
2022-10-25T10:39:52.282Z,100124.41
2022-10-25T10:44:11.625Z,100116.28
2022-10-25T10:48:21.080Z,100109.16
2022-10-25T10:52:31.541Z,100111.63
2022-10-25T10:56:36.014Z,100115.97
2022-10-25T11:00:39.227Z,100114.97
2022-10-25T11:04:49.932Z,100107.63
2022-10-25T11:09:15.738Z,100105.72
2022-10-25T11:13:22.002Z,100110.88
2022-10-25T11:17:30.768Z,100102.69
2022-10-25T11:21:50.041Z,100107.00
2022-10-25T11:26:00.300Z,100112.13
2022-10-25T11:30:17.372Z,100104.88
2022-10-25T11:34:32.149Z,100101.16
2022-10-25T11:38:49.607Z,100089.47
2022-10-25T11:43:02.534Z,100094.69
2022-10-25T11:47:15.850Z,100090.13
2022-10-25T11:51:29.561Z,100089.00
2022-10-25T11:55:40.519Z,100095.06
2022-10-25T11:59:57.307Z,100086.88
2022-10-25T12:04:16.501Z,100084.19
2022-10-25T12:08:31.058Z,100086.78
2022-10-25T12:12:44.207Z,100087.44
2022-10-25T12:16:48.455Z,100093.56
2022-10-25T12:20:55.202Z,100090.00
2022-10-25T12:25:02.337Z,100088.22
2022-10-25T12:29:07.361Z,100081.88
2022-10-25T12:33:21.599Z,100084.22
2022-10-25T12:37:35.865Z,100080.69
2022-10-25T12:41:41.324Z,100078.91
2022-10-25T12:45:59.653Z,100072.56
2022-10-25T12:50:24.509Z,100069.88
2022-10-25T12:54:52.813Z,100067.22
2022-10-25T12:59:07.586Z,100065.38
2022-10-25T13:03:49.438Z,100068.91
2022-10-25T13:07:55.776Z,100070.66
2022-10-25T13:12:02.635Z,100067.09
2022-10-25T13:16:07.932Z,100064.44
2022-10-25T13:20:47.223Z,100063.56
2022-10-25T13:24:50.295Z,100069.78
2022-10-25T13:28:57.395Z,100066.22
2022-10-25T13:33:29.581Z,100063.59
2022-10-25T13:37:43.819Z,100071.56
2022-10-25T13:41:47.213Z,100073.38
2022-10-25T13:45:56.063Z,100070.72
2022-10-25T13:49:59.883Z,100071.56
2022-10-25T13:54:08.416Z,100077.78
2022-10-25T13:58:41.756Z,100066.19
2022-10-25T14:03:20.202Z,100070.78
2022-10-25T14:07:49.399Z,100074.44
2022-10-25T14:11:55.319Z,100087.84
2022-10-25T14:16:01.839Z,100082.63
2022-10-25T14:24:21.419Z,100080.16
2022-10-25T14:28:26.818Z,100082.06
2022-10-25T14:32:33.136Z,100090.16
2022-10-25T14:36:38.369Z,100094.66
2022-10-25T14:40:41.418Z,100091.09
2022-10-25T14:44:48.240Z,100089.41
2022-10-25T14:48:55.784Z,100076.97
2022-10-25T14:53:01.231Z,100087.72
2022-10-25T14:57:07.195Z,100083.44
2022-10-25T15:01:12.345Z,100081.81
2022-10-25T15:05:19.815Z,100076.59
2022-10-25T15:13:49.792Z,100084.84
2022-10-25T15:17:53.658Z,100077.78
2022-10-25T15:22:10.243Z,100076.91
2022-10-25T15:26:29.165Z,100079.72
2022-10-25T15:30:36.856Z,100067.44
2022-10-25T15:34:40.197Z,100064.09
2022-10-25T15:39:06.289Z,100064.34
2022-10-25T15:43:08.119Z,100066.22
2022-10-25T15:47:23.731Z,100071.72
2022-10-25T15:51:30.193Z,100070.94
2022-10-25T15:55:34.455Z,100070.25
2022-10-25T15:59:38.866Z,100070.31
2022-10-25T16:03:41.897Z,100085.53
2022-10-25T16:07:44.958Z,100086.53
2022-10-25T16:11:54.160Z,100091.94
2022-10-25T16:16:04.377Z,100097.28
2022-10-25T16:20:17.160Z,100103.63
2022-10-25T16:24:20.385Z,100098.38
2022-10-25T16:32:33.209Z,100112.94
2022-10-25T16:36:36.286Z,100106.81
2022-10-25T16:40:39.419Z,100115.78
2022-10-25T16:44:42.455Z,100114.06
2022-10-25T16:48:46.926Z,100123.06
2022-10-25T16:52:50.209Z,100123.16
2022-10-25T16:56:53.406Z,100120.69
2022-10-25T17:00:59.469Z,100134.97
2022-10-25T17:05:03.887Z,100134.22
2022-10-25T17:09:06.930Z,100142.34
2022-10-25T17:13:15.617Z,100140.75
2022-10-25T17:17:18.730Z,100137.28
2022-10-25T17:21:23.605Z,100132.97
2022-10-25T17:25:26.619Z,100133.09
2022-10-25T17:29:29.601Z,100145.69
2022-10-25T17:33:32.884Z,100144.03
2022-10-25T17:37:39.283Z,100153.84
2022-10-25T17:41:42.591Z,100145.94
2022-10-25T17:45:45.695Z,100149.59
2022-10-25T17:49:49.094Z,100143.50
2022-10-25T17:53:55.197Z,100146.25
2022-10-25T17:57:58.408Z,100151.69
2022-10-25T18:02:01.767Z,100153.53
2022-10-25T18:06:08.011Z,100149.19
2022-10-25T18:10:12.743Z,100151.91
2022-10-25T18:14:15.789Z,100141.38
2022-10-25T18:18:19.393Z,100145.03
2022-10-25T18:22:22.598Z,100142.47
2022-10-25T18:26:29.299Z,100138.97
2022-10-25T18:30:33.971Z,100140.81
2022-10-25T18:34:37.017Z,100133.84
2022-10-25T18:38:40.055Z,100147.19
2022-10-25T18:42:44.412Z,100149.06
2022-10-25T18:46:47.875Z,100146.56
2022-10-25T18:50:50.918Z,100145.84
2022-10-25T18:54:54.561Z,100135.31
2022-10-25T18:58:59.714Z,100139.81
2022-10-25T19:03:02.726Z,100146.06
2022-10-25T19:07:05.759Z,100151.47
2022-10-25T19:11:12.144Z,100160.41
2022-10-25T19:15:16.765Z,100156.03
2022-10-25T19:19:19.734Z,100158.75
2022-10-25T19:23:22.883Z,100158.78
2022-10-25T19:27:26.171Z,100174.78
2022-10-25T19:31:30.644Z,100173.09
2022-10-25T19:35:33.830Z,100173.09
2022-10-25T19:39:37.900Z,100173.13
2022-10-25T19:43:41.092Z,100170.56
2022-10-25T19:47:46.104Z,100176.81
2022-10-25T19:51:49.257Z,100182.16
2022-10-25T19:56:01.335Z,100181.38
2022-10-25T20:00:06.693Z,100185.91
2022-10-25T20:04:13.354Z,100192.09
2022-10-25T20:08:16.737Z,100191.22
2022-10-25T20:12:19.733Z,100188.59
2022-10-25T20:16:23.004Z,100185.97
2022-10-25T20:20:27.535Z,100198.31
2022-10-25T20:24:30.745Z,100188.63
2022-10-25T20:28:33.736Z,100190.41
2022-10-25T20:32:36.706Z,100201.00
2022-10-25T20:36:41.201Z,100198.41
2022-10-25T20:40:45.286Z,100201.06
2022-10-25T20:44:48.317Z,100203.72
2022-10-25T20:48:51.470Z,100202.00
2022-10-25T20:53:09.907Z,100209.06
2022-10-25T20:57:13.713Z,100209.97
2022-10-25T21:01:17.341Z,100209.13
2022-10-25T21:05:20.473Z,100211.75
2022-10-25T21:09:25.345Z,100207.38
2022-10-25T21:13:31.992Z,100204.72
2022-10-25T21:17:35.485Z,100205.63
2022-10-25T21:21:38.675Z,100203.88
2022-10-25T21:25:43.129Z,100200.38
2022-10-25T21:29:46.306Z,100203.91
2022-10-25T21:33:51.831Z,100204.81
2022-10-25T21:37:56.846Z,100196.88
2022-10-25T21:42:01.237Z,100207.44
2022-10-25T21:46:08.182Z,100206.56
2022-10-25T21:50:11.611Z,100207.47
2022-10-25T21:54:14.608Z,100199.53
2022-10-25T21:58:18.990Z,100197.78
2022-10-25T22:02:22.387Z,100198.69
2022-10-25T22:06:27.393Z,100196.03
2022-10-25T22:10:30.388Z,100199.56
2022-10-25T22:14:34.899Z,100198.63
2022-10-25T22:18:38.487Z,100205.69
2022-10-25T22:22:41.524Z,100200.44
2022-10-25T22:26:46.458Z,100201.28
2022-10-25T22:30:57.527Z,100196.88
2022-10-25T22:35:00.536Z,100181.91
2022-10-25T22:39:04.255Z,100189.84
2022-10-25T22:43:07.372Z,100194.25
2022-10-25T22:47:11.754Z,100191.59
2022-10-25T22:51:14.827Z,100196.88
2022-10-25T22:55:17.889Z,100195.13
2022-10-25T22:59:20.930Z,100196.00
2022-10-25T23:03:25.587Z,100200.38
2022-10-25T23:07:28.584Z,100212.66
2022-10-25T23:11:34.333Z,100198.59
2022-10-25T23:15:37.361Z,100203.88
2022-10-25T23:19:41.732Z,100203.00
2022-10-25T23:23:45.429Z,100201.22
2022-10-25T23:27:48.785Z,100203.88
2022-10-25T23:31:52.513Z,100194.16
2022-10-25T23:36:02.617Z,100198.53
2022-10-25T23:40:06.375Z,100198.56
2022-10-25T23:44:09.384Z,100189.75
2022-10-25T23:48:12.388Z,100194.13
2022-10-25T23:52:16.931Z,100193.22
2022-10-25T23:56:19.993Z,100188.81
